Portada
METAR-TAF:

METAR-TAF

Aeropuertos :

Jizan, Arabia Saudita

latitud: 16-54N, longitud: 042-35E, altitud: 6 m

Observación

El informe se hizo hace 23 minutos, a las 04:00 UTC
Viento calma
Temperatura 25°C
Humedad 83%
Presión 1013 hPa
Visibilidad: 9000 m
Nubes dispersas a una altura de 3000 ft

METAR: OEGN 250400Z 00000KT 9000 SCT030 25/22 Q1013 NOSIG

Hora: 07:23 (04:23 UTC)

Pronóstico

El informe se hizo hace 5 horas y 23 minutos, a las 23:00 UTC
Pronóstico válido del 25 a las 00 UTC al 26 a las 06 UTC
Viento 3 kt con dirección variable
Visibilidad: 8000 m
Nubes dispersas a una altura de 3000 ft
Evolucionando progresivamente
del 25 a las 06 UTC al 25 a las 08 UTC
Viento 12 kt del suroeste

TAF: OEGN 242300Z 2500/2606 VRB03KT 8000 SCT030 BECMG 2506/2508 23012KT

Observaciones y pronósticos meteorológicos de más de 4000 aeropuertos (mensajes METAR y TAF).

Los puntos amarillos y rojos representan las estaciones disponibles.

Ponga el ratón en el punto deseado para ver el nombre de la estación.

Haga clic para ver las observaciones y los pronósticos meteorológicos.

Para cambiar el mapa : haga clic en los botones verdes con una cruz de color negro para hacer un zoom, en el botón verde con un guión para alejar o en las flechas verdes para mapas adyacentes.


METAR-TAF: